Time;durP1;ratioP1;P1;durP2;ratioP2;P2;SDS_P1;SDS_P2;PMS_P1;PMS_P2;Temp;Humidity;BMP_temperature;BMP_pressure;BME280_temperature;BME280_humidity;BME280_pressure;Samples;Min_cycle;Max_cycle;Signal;HPM_P1;HPM_P2
2023/01/08 00:02:18;;;;;;;17.23;10.93;;;19.10;85.60;;;;;;7409354;19;20356;-66
2023/01/08 00:04:48;;;;;;;15.82;10.50;;;19.10;85.70;;;;;;7408052;19;19918;-66
2023/01/08 00:07:17;;;;;;;17.15;11.07;;;19.00;85.60;;;;;;7409546;19;20343;-65
2023/01/08 00:09:49;;;;;;;15.85;10.23;;;19.00;85.70;;;;;;7410500;19;20015;-66
2023/01/08 00:12:18;;;;;;;16.27;10.20;;;19.00;85.70;;;;;;7411045;19;19918;-65
2023/01/08 00:14:47;;;;;;;17.13;11.18;;;19.00;85.70;;;;;;7408346;19;19922;-66
2023/01/08 00:17:19;;;;;;;18.25;8.43;;;18.90;85.70;;;;;;7409118;19;19918;-66
2023/01/08 00:19:48;;;;;;;16.38;10.50;;;18.90;85.60;;;;;;7409379;19;19919;-65
2023/01/08 00:22:17;;;;;;;15.57;8.63;;;18.90;85.70;;;;;;7409547;19;19939;-66
2023/01/08 00:24:46;;;;;;;15.23;10.07;;;18.90;85.70;;;;;;7406073;19;19950;-66
2023/01/08 00:27:16;;;;;;;16.85;10.05;;;18.90;85.80;;;;;;7407654;19;19932;-66
2023/01/08 00:29:45;;;;;;;17.13;11.00;;;18.90;85.80;;;;;;7404874;19;19956;-66
2023/01/08 00:32:14;;;;;;;13.93;8.02;;;18.80;85.80;;;;;;7405770;19;20295;-66
2023/01/08 00:34:47;;;;;;;;;;;18.80;85.80;;;;;;7406287;19;19926;-65
2023/01/08 00:37:17;;;;;;;14.77;9.23;;;18.80;85.60;;;;;;7405144;19;20426;-65
2023/01/08 00:39:47;;;;;;;16.45;8.88;;;18.70;85.90;;;;;;7406704;19;19922;-65
2023/01/08 00:42:16;;;;;;;;;;;18.70;85.80;;;;;;7406854;19;19923;-66
2023/01/08 00:44:46;;;;;;;16.40;8.90;;;18.70;85.60;;;;;;7406043;19;19915;-66
2023/01/08 00:47:15;;;;;;;14.18;9.52;;;18.70;86.10;;;;;;7405520;19;19942;-65
2023/01/08 00:49:47;;;;;;;14.10;7.57;;;18.70;85.90;;;;;;7405874;19;19932;-66
2023/01/08 00:52:16;;;;;;;14.35;8.98;;;18.70;85.80;;;;;;7406369;19;19929;-66
2023/01/08 00:54:45;;;;;;;14.45;8.18;;;18.60;85.80;;;;;;7401963;19;20429;-66
2023/01/08 00:57:14;;;;;;;13.80;7.38;;;18.60;85.90;;;;;;7404698;19;19923;-66
2023/01/08 00:59:43;;;;;;;14.73;8.98;;;18.60;85.80;;;;;;7406856;19;19926;-66
2023/01/08 01:02:13;;;;;;;13.80;7.60;;;18.60;85.80;;;;;;7405356;19;20329;-66
2023/01/08 01:04:42;;;;;;;14.60;8.73;;;18.60;85.80;;;;;;7406798;19;19982;-66
2023/01/08 01:07:13;;;;;;;14.07;8.60;;;18.60;85.90;;;;;;7405505;19;19929;-66
2023/01/08 01:09:42;;;;;;;12.07;8.18;;;18.60;85.90;;;;;;7405673;19;20021;-65
2023/01/08 01:12:11;;;;;;;13.18;7.53;;;18.50;85.80;;;;;;7407180;19;19950;-66
2023/01/08 01:14:41;;;;;;;14.30;6.78;;;18.50;85.80;;;;;;7402673;19;19911;-66
2023/01/08 01:17:11;;;;;;;12.77;7.25;;;18.50;85.80;;;;;;7406384;19;20359;-66
2023/01/08 01:19:40;;;;;;;12.18;8.63;;;18.50;85.80;;;;;;7408237;19;19914;-66
2023/01/08 01:22:10;;;;;;;12.40;7.70;;;18.50;85.80;;;;;;7406324;19;19940;-66
2023/01/08 01:24:41;;;;;;;12.82;8.07;;;18.50;85.70;;;;;;7403529;19;19923;-66
2023/01/08 01:27:10;;;;;;;12.95;7.70;;;18.40;85.70;;;;;;7404865;19;19922;-66
2023/01/08 01:29:40;;;;;;;13.05;7.82;;;18.40;85.70;;;;;;7407874;19;19921;-66
2023/01/08 01:32:09;;;;;;;11.93;6.45;;;18.40;85.70;;;;;;7405786;19;20274;-66
2023/01/08 01:34:39;;;;;;;10.85;6.80;;;18.40;85.70;;;;;;7403518;19;19922;-67
2023/01/08 01:37:08;;;;;;;10.65;7.15;;;18.40;85.70;;;;;;7403373;19;19915;-65
2023/01/08 01:39:37;;;;;;;11.00;7.40;;;18.40;85.70;;;;;;7404356;19;20332;-66
2023/01/08 01:42:38;;;;;;;12.20;7.53;;;18.40;85.70;;;;;;7406123;19;19923;-66
2023/01/08 01:45:03;;;;;;;13.38;6.72;;;18.40;85.70;;;;;;7402913;19;19949;-65
2023/01/08 01:47:34;;;;;;;11.15;6.72;;;18.30;85.60;;;;;;7407256;19;19930;-66
2023/01/08 01:50:10;;;;;;;10.55;7.00;;;18.30;85.60;;;;;;7407955;19;20359;-66
2023/01/08 01:52:42;;;;;;;10.80;6.28;;;18.30;85.60;;;;;;7404181;19;19974;-66
2023/01/08 01:55:14;;;;;;;10.18;6.63;;;18.30;85.60;;;;;;7405265;19;19923;-65
2023/01/08 01:57:50;;;;;;;11.50;7.95;;;18.30;85.60;;;;;;7405722;19;19923;-66
2023/01/08 02:00:22;;;;;;;8.30;5.30;;;18.30;85.50;;;;;;7409600;19;19926;-66
2023/01/08 02:02:51;;;;;;;10.00;5.88;;;18.30;85.60;;;;;;7405314;19;19914;-66
2023/01/08 02:05:21;;;;;;;9.02;6.88;;;18.30;85.50;;;;;;7402622;19;19918;-66
2023/01/08 02:07:57;;;;;;;10.23;6.85;;;18.30;85.50;;;;;;7404760;19;19929;-66
2023/01/08 02:10:50;;;;;;;10.02;6.57;;;18.20;85.40;;;;;;7405884;19;19918;-66
2023/01/08 02:13:25;;;;;;;9.93;5.10;;;18.20;85.50;;;;;;7403268;19;20278;-66
2023/01/08 02:15:58;;;;;;;9.23;6.00;;;18.20;85.50;;;;;;7408313;19;19927;-66
2023/01/08 02:18:33;;;;;;;10.18;6.35;;;18.20;85.40;;;;;;7405074;19;19914;-66
2023/01/08 02:21:06;;;;;;;8.82;5.80;;;18.20;85.40;;;;;;7405937;19;19918;-66
2023/01/08 02:23:43;;;;;;;8.10;4.70;;;18.20;85.30;;;;;;7402543;19;20319;-65
2023/01/08 02:26:22;;;;;;;8.88;5.90;;;18.20;85.40;;;;;;7403899;19;20368;-66
2023/01/08 02:28:59;;;;;;;9.65;6.05;;;18.20;85.30;;;;;;7404605;19;19915;-66
2023/01/08 02:31:30;;;;;;;8.82;4.65;;;18.20;85.30;;;;;;7400653;19;20398;-65
2023/01/08 02:34:00;;;;;;;10.00;6.00;;;18.20;85.20;;;;;;7399045;19;19918;-65
2023/01/08 02:36:31;;;;;;;;;;;18.10;85.10;;;;;;7403089;19;20535;-65
2023/01/08 02:39:13;;;;;;;7.95;5.70;;;18.10;84.90;;;;;;7404841;19;19967;-66
2023/01/08 02:41:54;;;;;;;10.32;4.60;;;18.10;85.10;;;;;;7402082;19;20340;-66
2023/01/08 02:44:31;;;;;;;8.43;5.82;;;18.10;85.00;;;;;;7404028;19;19918;-66
2023/01/08 02:47:04;;;;;;;10.82;6.72;;;18.10;85.10;;;;;;7403254;19;19919;-66
2023/01/08 02:49:38;;;;;;;9.20;4.18;;;18.10;85.00;;;;;;7402081;19;19919;-66
2023/01/08 02:52:10;;;;;;;10.13;5.80;;;18.10;85.00;;;;;;7402828;19;19926;-66
2023/01/08 02:54:41;;;;;;;8.07;4.35;;;18.10;85.00;;;;;;7403356;19;19914;-65
2023/01/08 02:57:16;;;;;;;9.10;4.38;;;18.10;84.90;;;;;;7403611;19;19933;-65
2023/01/08 02:59:46;;;;;;;8.77;4.15;;;18.10;84.90;;;;;;7400838;19;20344;-65
2023/01/08 03:02:16;;;;;;;8.43;4.38;;;18.10;84.90;;;;;;7400379;19;19939;-66
2023/01/08 03:04:53;;;;;;;7.82;5.55;;;18.10;84.90;;;;;;7399316;19;19922;-66
2023/01/08 03:07:22;;;;;;;9.50;4.57;;;18.10;84.80;;;;;;7399347;19;20340;-66
2023/01/08 03:09:52;;;;;;;7.82;4.10;;;18.00;84.80;;;;;;7398541;19;20280;-66
2023/01/08 03:12:26;;;;;;;;;;;18.00;84.80;;;;;;7403593;19;19926;-66
2023/01/08 03:15:00;;;;;;;7.65;3.95;;;18.00;84.60;;;;;;7401209;19;19919;-66
2023/01/08 03:17:34;;;;;;;8.38;4.60;;;18.00;84.70;;;;;;7400925;19;22133;-66
2023/01/08 03:20:09;;;;;;;7.93;4.05;;;18.00;84.70;;;;;;7402460;19;19930;-66
2023/01/08 03:22:42;;;;;;;9.18;5.70;;;18.00;84.70;;;;;;7400414;19;19915;-66
2023/01/08 03:25:14;;;;;;;7.75;4.97;;;18.00;84.60;;;;;;7401128;19;19918;-66
2023/01/08 03:27:51;;;;;;;7.72;4.47;;;17.90;84.60;;;;;;7400114;19;20442;-66
2023/01/08 03:30:21;;;;;;;8.27;5.10;;;17.90;84.50;;;;;;7398449;19;19950;-65
2023/01/08 03:32:53;;;;;;;8.82;5.63;;;17.90;84.50;;;;;;7400142;19;19990;-65
2023/01/08 03:35:26;;;;;;;7.55;3.95;;;17.90;84.50;;;;;;7397298;19;19915;-65
2023/01/08 03:38:00;;;;;;;7.45;5.35;;;17.90;84.50;;;;;;7398443;19;19982;-66
2023/01/08 03:40:33;;;;;;;7.40;4.57;;;17.90;84.50;;;;;;7401381;19;19914;-65
2023/01/08 03:43:06;;;;;;;7.03;4.78;;;17.90;84.50;;;;;;7401173;19;19915;-66
2023/01/08 03:45:38;;;;;;;8.80;4.20;;;17.90;84.50;;;;;;7397803;19;20358;-66
2023/01/08 03:48:09;;;;;;;7.28;3.45;;;17.90;84.50;;;;;;7400958;19;19922;-65
2023/01/08 03:50:38;;;;;;;7.53;4.07;;;17.90;84.40;;;;;;7397688;19;20299;-66
2023/01/08 03:53:09;;;;;;;8.15;5.30;;;17.90;84.40;;;;;;7400331;19;19915;-66
2023/01/08 03:55:38;;;;;;;8.05;5.22;;;17.90;84.40;;;;;;7397486;19;20430;-66
2023/01/08 03:58:10;;;;;;;7.03;3.47;;;17.90;84.40;;;;;;7399073;19;19929;-65
2023/01/08 04:00:39;;;;;;;8.30;4.05;;;17.90;84.40;;;;;;7399605;19;19923;-66
2023/01/08 04:03:08;;;;;;;7.47;4.88;;;17.90;84.30;;;;;;7396914;19;20145;-66
2023/01/08 04:05:37;;;;;;;7.00;4.90;;;17.80;84.30;;;;;;7402123;19;20336;-66
2023/01/08 04:08:07;;;;;;;8.40;5.13;;;17.80;84.30;;;;;;7401976;19;19922;-66
2023/01/08 04:10:36;;;;;;;5.90;3.60;;;17.80;84.30;;;;;;7405907;19;19929;-66
2023/01/08 04:13:05;;;;;;;7.00;4.63;;;17.80;84.30;;;;;;7406800;19;19922;-66
2023/01/08 04:15:37;;;;;;;7.05;4.20;;;17.80;84.90;;;;;;7406173;19;19982;-66
2023/01/08 04:18:06;;;;;;;9.07;4.75;;;17.80;84.30;;;;;;7407934;19;19946;-66
2023/01/08 04:20:35;;;;;;;7.50;3.58;;;17.80;84.30;;;;;;7408147;19;19926;-65
2023/01/08 04:23:04;;;;;;;7.00;3.50;;;17.80;84.30;;;;;;7408277;19;19918;-66
2023/01/08 04:25:33;;;;;;;7.93;4.28;;;17.80;84.20;;;;;;7406988;19;19922;-64
2023/01/08 04:28:02;;;;;;;7.55;3.58;;;17.80;84.20;;;;;;7408998;19;19931;-66
2023/01/08 04:30:32;;;;;;;6.38;4.28;;;17.80;84.20;;;;;;7410909;19;20017;-66
2023/01/08 04:33:03;;;;;;;7.78;3.60;;;17.80;84.20;;;;;;7408133;19;19922;-66
2023/01/08 04:35:42;;;;;;;7.22;3.60;;;17.80;84.20;;;;;;7403347;19;19918;-66
2023/01/08 04:38:11;;;;;;;6.47;3.17;;;17.80;84.20;;;;;;7404575;19;20260;-66
2023/01/08 04:40:40;;;;;;;6.85;4.53;;;17.80;84.20;;;;;;7406892;19;20873;-66
2023/01/08 04:43:09;;;;;;;6.03;3.08;;;17.70;84.10;;;;;;7409620;19;19919;-66
2023/01/08 04:45:39;;;;;;;6.43;4.05;;;17.80;84.10;;;;;;7407133;19;19951;-66
2023/01/08 04:48:13;;;;;;;6.80;4.55;;;17.80;84.10;;;;;;7402811;19;19994;-66
2023/01/08 04:50:42;;;;;;;7.88;4.20;;;17.80;84.00;;;;;;7402292;19;19946;-66
2023/01/08 04:53:11;;;;;;;7.60;4.45;;;17.90;83.90;;;;;;7406739;19;19930;-66
2023/01/08 04:55:40;;;;;;;7.32;3.90;;;17.90;83.80;;;;;;7403778;19;19935;-66
2023/01/08 04:58:09;;;;;;;6.68;3.20;;;18.00;83.70;;;;;;7405117;19;19914;-65
2023/01/08 05:00:40;;;;;;;6.68;4.55;;;18.00;83.50;;;;;;7407399;19;19929;-65
2023/01/08 05:03:11;;;;;;;6.25;4.38;;;18.10;83.30;;;;;;7406833;19;19926;-66
2023/01/08 05:05:40;;;;;;;6.95;3.22;;;18.20;83.10;;;;;;7405122;19;19946;-66
2023/01/08 05:08:10;;;;;;;6.13;4.00;;;18.30;82.80;;;;;;7406068;19;19918;-65
2023/01/08 05:10:39;;;;;;;;;;;18.30;82.50;;;;;;7410416;19;19974;-65
2023/01/08 05:13:08;;;;;;;7.45;4.55;;;18.50;82.50;;;;;;7404450;19;19977;-66
2023/01/08 05:15:37;;;;;;;6.00;3.20;;;18.50;82.00;;;;;;7405049;19;20257;-65
2023/01/08 05:18:07;;;;;;;5.65;3.65;;;18.60;81.70;;;;;;7407043;19;19922;-66
2023/01/08 05:20:39;;;;;;;5.95;3.53;;;18.70;81.40;;;;;;7405902;19;19926;-65
2023/01/08 05:23:08;;;;;;;6.53;4.00;;;18.80;81.20;;;;;;7406119;19;19923;-65
2023/01/08 05:25:37;;;;;;;5.75;3.90;;;18.90;81.00;;;;;;7403038;19;19918;-65
2023/01/08 05:28:07;;;;;;;6.90;2.97;;;19.00;80.70;;;;;;7406339;19;20298;-66
2023/01/08 05:30:36;;;;;;;5.55;3.80;;;19.00;80.40;;;;;;7405913;19;19942;-65
2023/01/08 05:33:05;;;;;;;7.18;3.80;;;19.10;80.30;;;;;;7404862;19;19929;-65
2023/01/08 05:35:34;;;;;;;5.68;3.80;;;19.10;80.10;;;;;;7404937;19;20388;-65
2023/01/08 05:38:05;;;;;;;6.15;3.72;;;19.10;80.00;;;;;;7403072;19;19935;-66
2023/01/08 05:40:34;;;;;;;5.78;4.03;;;19.10;79.80;;;;;;7406038;19;19932;-65
2023/01/08 05:43:04;;;;;;;5.20;3.80;;;19.10;79.70;;;;;;7404593;19;19922;-65
2023/01/08 05:45:33;;;;;;;6.07;3.22;;;19.10;79.80;;;;;;7404543;19;20336;-66
2023/01/08 05:48:07;;;;;;;5.18;2.38;;;19.10;79.70;;;;;;7404429;19;19922;-66
2023/01/08 05:50:36;;;;;;;5.35;2.70;;;19.10;79.80;;;;;;7405483;19;19918;-65
2023/01/08 05:53:11;;;;;;;6.20;3.65;;;19.10;79.80;;;;;;7404386;19;19918;-66
2023/01/08 05:55:40;;;;;;;5.60;2.92;;;19.00;79.70;;;;;;7403265;19;20259;-66
2023/01/08 05:58:09;;;;;;;5.00;2.50;;;19.00;79.80;;;;;;7404498;19;20259;-66
2023/01/08 06:00:38;;;;;;;;;;;19.00;79.90;;;;;;7406076;19;19933;-65
2023/01/08 06:03:08;;;;;;;5.63;3.55;;;18.90;79.80;;;;;;7401697;19;19934;-66
2023/01/08 06:05:37;;;;;;;4.35;2.20;;;18.90;80.00;;;;;;7404373;19;20340;-66
2023/01/08 06:08:09;;;;;;;5.88;3.65;;;18.90;80.00;;;;;;7405345;19;19919;-66
2023/01/08 06:10:39;;;;;;;4.95;2.15;;;18.90;80.10;;;;;;7407086;19;19918;-66
2023/01/08 06:13:09;;;;;;;4.38;3.15;;;18.80;80.10;;;;;;7407479;19;19915;-66
2023/01/08 06:15:40;;;;;;;5.75;3.63;;;18.80;80.10;;;;;;7404880;19;19923;-66
2023/01/08 06:18:10;;;;;;;7.43;4.20;;;18.70;80.10;;;;;;7406924;19;19919;-66
2023/01/08 06:20:40;;;;;;;4.88;2.35;;;18.80;80.20;;;;;;7401990;19;20273;-66
2023/01/08 06:23:12;;;;;;;5.03;2.45;;;18.70;80.20;;;;;;7407105;19;19954;-65
2023/01/08 06:25:41;;;;;;;4.95;2.33;;;18.70;80.30;;;;;;7406256;19;20264;-66
2023/01/08 06:28:10;;;;;;;4.25;2.10;;;18.60;80.30;;;;;;7406667;19;19919;-65
2023/01/08 06:30:40;;;;;;;5.18;3.50;;;18.60;80.30;;;;;;7404162;19;19926;-66
2023/01/08 06:33:09;;;;;;;5.10;3.25;;;18.60;80.40;;;;;;7400303;19;19923;-66
2023/01/08 06:35:38;;;;;;;;;;;18.50;80.40;;;;;;7403541;19;19924;-66
2023/01/08 06:38:07;;;;;;;6.30;3.38;;;18.50;80.40;;;;;;7404621;19;19919;-66
2023/01/08 06:40:39;;;;;;;4.80;2.78;;;18.50;80.60;;;;;;7406380;19;20340;-66
2023/01/08 06:43:08;;;;;;;4.57;3.22;;;18.50;80.60;;;;;;7408748;19;19970;-65
2023/01/08 06:45:38;;;;;;;5.32;2.35;;;18.40;80.60;;;;;;7404320;19;20348;-66
2023/01/08 06:48:09;;;;;;;4.68;2.20;;;18.40;80.70;;;;;;7403153;19;20286;-66
2023/01/08 06:50:38;;;;;;;;;;;18.40;80.70;;;;;;7406314;19;19926;-66
2023/01/08 06:53:07;;;;;;;4.47;2.83;;;18.30;80.60;;;;;;7402953;19;19946;-66
2023/01/08 06:55:39;;;;;;;4.35;2.67;;;18.30;80.70;;;;;;7403219;19;20340;-66
2023/01/08 06:58:08;;;;;;;4.60;2.30;;;18.30;80.80;;;;;;7403298;19;20376;-65
2023/01/08 07:00:37;;;;;;;4.35;2.60;;;18.30;80.80;;;;;;7397901;19;20032;-66
2023/01/08 07:03:07;;;;;;;4.97;3.13;;;18.30;80.90;;;;;;7400754;19;19925;-66
2023/01/08 07:05:37;;;;;;;4.22;2.30;;;18.30;80.90;;;;;;7402723;19;19922;-65
2023/01/08 07:08:07;;;;;;;4.03;2.72;;;18.30;80.90;;;;;;7400324;19;19937;-66
2023/01/08 07:10:39;;;;;;;4.75;2.53;;;18.30;80.80;;;;;;7399684;19;19978;-65
2023/01/08 07:13:09;;;;;;;3.75;2.60;;;18.40;80.70;;;;;;7400526;19;19922;-66
2023/01/08 07:15:38;;;;;;;4.70;2.70;;;18.40;80.60;;;;;;7400113;19;19919;-66
2023/01/08 07:18:08;;;;;;;4.68;2.10;;;18.50;80.50;;;;;;7400532;19;20317;-66
2023/01/08 07:20:38;;;;;;;3.65;1.92;;;18.50;80.30;;;;;;7400139;19;20357;-65
2023/01/08 07:23:09;;;;;;;5.15;2.80;;;18.60;80.20;;;;;;7392992;19;19939;-65
2023/01/08 07:25:41;;;;;;;5.03;3.05;;;18.60;80.10;;;;;;7402767;19;19919;-66
2023/01/08 07:28:13;;;;;;;4.85;3.00;;;18.70;80.00;;;;;;7400553;19;19910;-65
2023/01/08 07:30:43;;;;;;;5.85;2.83;;;18.80;79.90;;;;;;7400143;19;19925;-66
2023/01/08 07:33:12;;;;;;;4.40;1.77;;;18.90;79.70;;;;;;7397855;19;19926;-66
2023/01/08 07:35:41;;;;;;;;;;;19.00;79.60;;;;;;7362403;19;20297;-66
2023/01/08 07:38:11;;;;;;;4.95;2.80;;;19.10;79.70;;;;;;7397008;19;19914;-66
2023/01/08 07:40:43;;;;;;;;;;;19.10;79.20;;;;;;7406715;19;19927;-66
2023/01/08 07:43:12;;;;;;;5.03;2.05;;;19.20;79.40;;;;;;7397793;19;19930;-66
2023/01/08 07:45:42;;;;;;;5.07;3.20;;;19.30;78.80;;;;;;7405695;19;20372;-65
2023/01/08 07:48:14;;;;;;;4.18;2.78;;;19.40;78.70;;;;;;7367855;19;19946;-66
2023/01/08 07:50:47;;;;;;;4.70;2.50;;;19.40;78.40;;;;;;7402470;19;19922;-65
2023/01/08 07:53:16;;;;;;;4.18;1.60;;;19.50;78.20;;;;;;7398431;19;19915;-65
2023/01/08 07:55:49;;;;;;;4.50;2.40;;;19.60;78.10;;;;;;7404794;19;19939;-66
2023/01/08 07:58:18;;;;;;;4.35;2.17;;;19.60;78.00;;;;;;7403881;19;19971;-66
2023/01/08 08:00:47;;;;;;;4.05;2.42;;;19.60;77.90;;;;;;7406591;19;19923;-65
2023/01/08 08:03:16;;;;;;;4.55;2.50;;;19.70;77.70;;;;;;7402472;19;19986;-66
2023/01/08 08:05:45;;;;;;;3.58;2.28;;;19.70;77.60;;;;;;7406886;19;19918;-66
2023/01/08 08:08:15;;;;;;;4.60;2.85;;;19.80;77.50;;;;;;7398264;19;19919;-66
2023/01/08 08:10:44;;;;;;;4.90;2.25;;;19.80;77.40;;;;;;7400854;19;19934;-66
2023/01/08 08:13:18;;;;;;;4.85;2.55;;;19.80;77.30;;;;;;7401063;19;19930;-66
2023/01/08 08:15:47;;;;;;;4.18;2.38;;;19.80;77.20;;;;;;7405211;19;19938;-66
2023/01/08 08:18:16;;;;;;;5.35;2.55;;;19.80;77.20;;;;;;7404696;19;19927;-66
2023/01/08 08:20:48;;;;;;;4.13;2.60;;;19.80;77.30;;;;;;7410068;19;19974;-66
2023/01/08 08:23:17;;;;;;;3.97;2.45;;;19.70;77.20;;;;;;7402274;19;20344;-65
2023/01/08 08:25:46;;;;;;;3.72;1.90;;;19.70;77.30;;;;;;7401640;19;20069;-66
2023/01/08 08:28:20;;;;;;;3.75;2.25;;;19.70;77.30;;;;;;7405726;19;20345;-66
2023/01/08 08:30:49;;;;;;;4.03;1.45;;;19.60;77.40;;;;;;7400644;19;19933;-66
2023/01/08 08:33:18;;;;;;;3.30;1.50;;;19.60;77.50;;;;;;7406618;19;19923;-66
2023/01/08 08:35:51;;;;;;;4.72;1.50;;;19.50;77.60;;;;;;7403180;19;19919;-66
2023/01/08 08:38:20;;;;;;;5.57;1.73;;;19.50;77.70;;;;;;7399937;19;19964;-66
2023/01/08 08:40:49;;;;;;;5.40;2.67;;;19.40;77.90;;;;;;7394975;19;19962;-66
2023/01/08 08:43:21;;;;;;;4.70;1.50;;;19.40;78.10;;;;;;7404180;19;20336;-66
2023/01/08 08:45:50;;;;;;;4.40;2.17;;;19.40;78.90;;;;;;7397576;19;19937;-70
2023/01/08 08:48:20;;;;;;;4.85;2.55;;;19.40;79.80;;;;;;7400738;19;19922;-70
2023/01/08 08:50:50;;;;;;;4.07;1.45;;;19.30;80.60;;;;;;7402664;19;20385;-67
2023/01/08 08:53:22;;;;;;;3.63;2.83;;;19.30;81.50;;;;;;7405411;19;19992;-67
2023/01/08 08:55:51;;;;;;;6.43;2.75;;;19.40;82.30;;;;;;7400346;19;19929;-66
2023/01/08 08:58:23;;;;;;;5.75;2.30;;;19.30;82.50;;;;;;7404062;19;19919;-66
2023/01/08 09:00:53;;;;;;;4.97;2.60;;;19.30;83.00;;;;;;7398532;19;20018;-67
2023/01/08 09:03:24;;;;;;;3.65;2.15;;;19.30;83.30;;;;;;7406673;19;19938;-63
2023/01/08 09:05:53;;;;;;;3.58;1.45;;;19.30;83.60;;;;;;7404551;19;20340;-79
2023/01/08 09:08:22;;;;;;;5.90;1.65;;;19.20;83.90;;;;;;7401721;19;20377;-83
2023/01/08 09:10:55;;;;;;;4.47;1.20;;;19.20;84.10;;;;;;7403319;19;19935;-64
2023/01/08 09:13:27;;;;;;;3.40;2.47;;;19.20;84.20;;;;;;7406099;19;19927;-68
2023/01/08 09:16:00;;;;;;;5.65;2.47;;;19.10;84.20;;;;;;7402328;19;19918;-71
2023/01/08 09:18:29;;;;;;;3.67;2.35;;;19.10;84.30;;;;;;7406246;19;19929;-72
2023/01/08 09:21:06;;;;;;;3.65;1.40;;;19.10;84.40;;;;;;7405972;19;20272;-71
2023/01/08 09:23:35;;;;;;;4.30;1.50;;;19.10;84.40;;;;;;7403274;19;20369;-69
2023/01/08 09:26:06;;;;;;;7.95;2.13;;;19.10;84.40;;;;;;7401158;19;19929;-67
2023/01/08 09:28:38;;;;;;;6.35;1.10;;;19.10;84.40;;;;;;7402490;19;20276;-64
2023/01/08 09:31:10;;;;;;;3.10;1.83;;;19.10;84.30;;;;;;7403941;19;19927;-64
2023/01/08 09:33:39;;;;;;;5.25;2.17;;;19.10;84.30;;;;;;7405241;19;19914;-64
2023/01/08 09:36:12;;;;;;;4.82;1.73;;;19.10;84.30;;;;;;7399961;19;19915;-65
2023/01/08 09:38:42;;;;;;;3.42;1.40;;;19.10;84.30;;;;;;7406293;19;19926;-64
2023/01/08 09:41:14;;;;;;;3.63;1.00;;;19.10;84.30;;;;;;7404030;19;20256;-66
2023/01/08 09:43:49;;;;;;;3.05;0.80;;;19.10;84.20;;;;;;7405139;19;19919;-68
2023/01/08 09:46:21;;;;;;;5.97;2.35;;;19.00;84.20;;;;;;7403756;19;19933;-64
2023/01/08 09:48:53;;;;;;;4.70;1.95;;;19.10;84.20;;;;;;7404256;19;19919;-63
2023/01/08 09:51:23;;;;;;;5.25;2.35;;;19.00;84.20;;;;;;7405628;19;20357;-64
2023/01/08 09:53:57;;;;;;;3.45;1.80;;;19.00;84.20;;;;;;7406659;19;19942;-65
2023/01/08 09:56:26;;;;;;;7.03;1.13;;;19.00;84.20;;;;;;7403079;19;19942;-64
2023/01/08 09:59:01;;;;;;;3.63;1.70;;;19.00;84.60;;;;;;7402612;19;19969;-64
2023/01/08 10:01:32;;;;;;;4.15;2.15;;;19.00;84.10;;;;;;7403981;19;19985;-63
2023/01/08 10:04:06;;;;;;;5.00;2.03;;;19.00;84.00;;;;;;7403826;19;19947;-63
2023/01/08 10:06:36;;;;;;;5.68;1.73;;;19.00;84.00;;;;;;7405279;19;19946;-63
2023/01/08 10:09:05;;;;;;;3.03;1.65;;;19.00;84.00;;;;;;7402290;19;19925;-63
2023/01/08 10:11:43;;;;;;;6.03;2.00;;;19.00;83.90;;;;;;7402935;19;19922;-64
2023/01/08 10:14:24;;;;;;;3.40;1.60;;;19.00;83.80;;;;;;7403244;19;19933;-63
2023/01/08 10:16:57;;;;;;;3.78;1.88;;;19.00;83.90;;;;;;7402635;19;19919;-64
2023/01/08 10:19:26;;;;;;;3.72;1.88;;;18.90;83.70;;;;;;7402986;19;19922;-63
2023/01/08 10:21:58;;;;;;;2.80;1.10;;;18.90;83.70;;;;;;7402022;19;19945;-63
2023/01/08 10:24:36;;;;;;;2.78;1.40;;;18.90;83.60;;;;;;7400660;19;19919;-64
2023/01/08 10:27:09;;;;;;;3.58;0.98;;;18.90;83.60;;;;;;7404347;19;19922;-63
2023/01/08 10:29:41;;;;;;;3.53;1.83;;;18.90;83.50;;;;;;7404523;19;19919;-64
2023/01/08 10:32:15;;;;;;;2.55;1.05;;;18.90;83.50;;;;;;7398710;19;19923;-63
2023/01/08 10:34:47;;;;;;;3.15;1.90;;;18.90;83.40;;;;;;7404390;19;19919;-64
2023/01/08 10:37:27;;;;;;;3.17;1.30;;;18.90;83.50;;;;;;7400365;19;19911;-77
2023/01/08 10:40:00;;;;;;;3.45;1.50;;;18.90;83.40;;;;;;7401239;19;19974;-78
2023/01/08 10:42:29;;;;;;;2.25;0.80;;;18.80;83.40;;;;;;7402994;19;19919;-76
2023/01/08 10:45:20;;;;;;;3.67;1.50;;;18.90;83.40;;;;;;7403905;19;19974;-78
2023/01/08 10:47:51;;;;;;;4.38;1.42;;;18.90;83.30;;;;;;7400892;19;19922;-77
2023/01/08 10:50:25;;;;;;;4.50;1.48;;;18.90;83.30;;;;;;7402377;19;19915;-77
2023/01/08 10:52:55;;;;;;;2.60;0.82;;;18.90;83.20;;;;;;7401383;19;19958;-79
2023/01/08 10:55:28;;;;;;;3.28;1.00;;;18.90;83.20;;;;;;7402470;19;19919;-77
2023/01/08 10:57:59;;;;;;;4.10;1.35;;;18.90;83.20;;;;;;7401314;19;19926;-77
2023/01/08 11:00:33;;;;;;;3.38;1.40;;;18.90;83.20;;;;;;7403076;19;20062;-79
2023/01/08 11:03:09;;;;;;;3.03;1.38;;;18.90;83.20;;;;;;7400093;19;19935;-78
2023/01/08 11:05:41;;;;;;;3.33;1.35;;;18.90;83.20;;;;;;7403058;19;19918;-78
2023/01/08 11:08:18;;;;;;;5.13;1.63;;;18.90;83.20;;;;;;7403402;19;19956;-77
2023/01/08 11:10:55;;;;;;;4.90;0.60;;;18.90;83.20;;;;;;7404823;19;19934;-77
2023/01/08 11:13:25;;;;;;;2.33;0.85;;;18.90;83.20;;;;;;7404469;19;19929;-78
2023/01/08 11:16:09;;;;;;;3.03;1.33;;;18.90;83.20;;;;;;7402427;19;19915;-78
2023/01/08 11:18:45;;;;;;;2.60;1.23;;;18.90;83.20;;;;;;7401075;19;19933;-78
2023/01/08 11:21:22;;;;;;;4.10;1.50;;;18.90;83.10;;;;;;7405178;19;19925;-78
2023/01/08 11:24:04;;;;;;;4.93;0.88;;;18.90;83.20;;;;;;7403978;19;19944;-78
2023/01/08 11:26:38;;;;;;;3.85;1.58;;;18.90;83.10;;;;;;7410048;19;19974;-77
2023/01/08 11:29:15;;;;;;;4.90;1.50;;;18.90;83.10;;;;;;7408836;19;19981;-78
2023/01/08 11:31:54;;;;;;;2.70;0.73;;;18.90;83.10;;;;;;7400336;19;20001;-77
2023/01/08 11:34:30;;;;;;;3.60;1.48;;;18.90;83.10;;;;;;7407997;19;20563;-76
2023/01/08 11:37:06;;;;;;;3.33;1.33;;;18.90;83.10;;;;;;7407673;19;19922;-78
2023/01/08 11:39:39;;;;;;;3.15;1.60;;;18.90;83.00;;;;;;7405913;19;19926;-78
2023/01/08 11:42:33;;;;;;;3.60;1.42;;;18.90;83.00;;;;;;7408671;19;19918;-78
2023/01/08 11:45:18;;;;;;;3.38;0.75;;;18.90;82.80;;;;;;7410798;19;19926;-77
2023/01/08 11:48:33;;;;;;;2.72;1.50;;;18.90;82.70;;;;;;7408788;19;19986;-77
2023/01/08 11:51:26;;;;;;;3.22;1.00;;;18.90;82.60;;;;;;7408159;19;19915;-77
2023/01/08 11:54:05;;;;;;;4.70;0.70;;;18.90;82.60;;;;;;7408834;19;20249;-77
2023/01/08 11:56:51;;;;;;;3.25;0.60;;;19.00;82.50;;;;;;7407062;19;20581;-78
2023/01/08 11:59:29;;;;;;;2.97;1.25;;;19.00;82.50;;;;;;7410731;19;19918;-78
2023/01/08 12:02:08;;;;;;;3.03;1.38;;;19.00;82.40;;;;;;7405531;19;19922;-77
2023/01/08 12:05:25;;;;;;;3.75;1.33;;;19.00;82.40;;;;;;7405138;19;19978;-77
2023/01/08 12:08:23;;;;;;;2.60;0.90;;;19.00;82.30;;;;;;7404833;19;19922;-78
2023/01/08 12:11:19;;;;;;;4.03;1.25;;;19.00;82.20;;;;;;7406631;19;19915;-78
2023/01/08 12:14:39;;;;;;;3.83;1.20;;;19.00;82.20;;;;;;7406659;19;19919;-82
2023/01/08 12:17:49;;;;;;;3.78;1.38;;;19.10;82.20;;;;;;7398503;19;19915;-79
2023/01/08 12:20:47;;;;;;;2.70;1.10;;;19.10;82.20;;;;;;7404022;19;20023;-78
2023/01/08 12:23:34;;;;;;;4.25;0.80;;;19.10;82.10;;;;;;7402202;19;19968;-78
2023/01/08 12:26:12;;;;;;;2.40;0.55;;;19.10;82.00;;;;;;7408109;19;19934;-76
2023/01/08 12:28:59;;;;;;;4.00;0.55;;;19.10;82.60;;;;;;7407826;19;19922;-78
2023/01/08 12:31:59;;;;;;;2.20;1.25;;;19.10;81.90;;;;;;7401986;19;19925;-76
2023/01/08 12:34:39;;;;;;;3.00;0.90;;;19.10;82.00;;;;;;7407810;19;19919;-78
2023/01/08 12:37:16;;;;;;;4.80;1.25;;;19.10;82.00;;;;;;7404620;19;20376;-77
2023/01/08 12:39:52;;;;;;;2.78;1.08;;;19.10;82.00;;;;;;7407818;19;20002;-78
2023/01/08 12:42:27;;;;;;;3.85;1.73;;;19.10;82.00;;;;;;7405628;19;19928;-78
2023/01/08 12:44:59;;;;;;;3.20;1.10;;;19.10;82.00;;;;;;7407855;19;19943;-73
2023/01/08 12:47:32;;;;;;;4.88;1.20;;;19.10;82.60;;;;;;7406474;19;19919;-79
2023/01/08 12:50:17;;;;;;;2.70;1.20;;;19.10;82.10;;;;;;7401020;19;19922;-78
2023/01/08 12:52:57;;;;;;;4.05;0.68;;;19.10;82.10;;;;;;7401617;19;19924;-79
2023/01/08 12:55:40;;;;;;;3.95;1.55;;;19.10;82.60;;;;;;7406679;19;19918;-78
2023/01/08 12:58:26;;;;;;;3.08;1.05;;;19.10;82.10;;;;;;7403600;19;19922;-80
2023/01/08 13:01:02;;;;;;;2.53;0.60;;;19.10;82.10;;;;;;7406856;19;19964;-79
2023/01/08 13:03:33;;;;;;;5.13;1.00;;;19.10;82.10;;;;;;7403730;19;19932;-80
2023/01/08 13:06:13;;;;;;;5.75;1.40;;;19.10;82.00;;;;;;7408134;19;19915;-79
2023/01/08 13:08:54;;;;;;;4.00;1.38;;;19.10;82.10;;;;;;7408143;19;19931;-79
2023/01/08 13:11:43;;;;;;;5.50;1.45;;;19.10;82.10;;;;;;7406441;19;19918;-78
2023/01/08 13:14:42;;;;;;;4.80;1.17;;;19.20;82.20;;;;;;7405448;19;19978;-79
2023/01/08 13:17:32;;;;;;;2.65;1.25;;;19.10;82.10;;;;;;7405649;19;19912;-79
2023/01/08 13:20:25;;;;;;;3.72;0.88;;;19.10;82.00;;;;;;7405860;19;19946;-80